Kapuskasing, Kapuskasing Airport (CYYU)

NameKapuskasing Airport
CityKapuskasing
CountryCanada
ICAOCYYU
IATAYYU
Altitude226 m
CoordinatesGoogle Map
Live Air TrafficLiveATC.net
METARCYYU 191700Z 22009KT 200V260 15SM FEW033 03/M06 A3014 RMK CU2 SLP226
2019-03-19 17:00:00 Wind: South-Southwest (220°) 4.63 m/s - Visibility: 24140.1 m - Temperature: 3 °C - Dew point: -6 °C - Humidity: 52% - Pressure: 1020.66 hPa

Sorry, no flights used the airport in this database.